Time;durP1;ratioP1;P1;durP2;ratioP2;P2;SDS_P1;SDS_P2;PMS_P1;PMS_P2;Temp;Humidity;BMP_temperature;BMP_pressure;BME280_temperature;BME280_humidity;BME280_pressure;Samples;Min_cycle;Max_cycle;Signal;HPM_P1;HPM_P2
2022/06/16 00:01:56;;;;;;;;;13.75;13.75;;;;;25.07;34.05;101240.97;5081213;27;45473;-55
2022/06/16 00:04:23;;;;;;;;;14.00;14.00;;;;;25.02;34.32;101245.78;5080961;28;45410;-56
2022/06/16 00:06:48;;;;;;;;;15.00;13.75;;;;;24.96;34.57;101238.13;5080980;27;45401;-56
2022/06/16 00:09:14;;;;;;;;;11.25;11.25;;;;;24.90;34.19;101227.78;5079484;28;45386;-56
2022/06/16 00:11:39;;;;;;;;;13.50;13.50;;;;;24.88;34.78;101238.66;5079936;28;45589;-56
2022/06/16 00:14:05;;;;;;;;;16.75;14.00;;;;;24.84;34.92;101247.84;5080900;27;45481;-57
2022/06/16 00:16:30;;;;;;;;;14.50;14.25;;;;;24.79;34.82;101248.19;5080597;27;46161;-56
2022/06/16 00:18:56;;;;;;;;;13.50;13.25;;;;;24.76;35.10;101247.53;5080845;27;45222;-55
2022/06/16 00:21:21;;;;;;;;;12.00;12.00;;;;;24.73;35.37;101251.28;5081184;27;45209;-55
2022/06/16 00:23:47;;;;;;;;;11.75;10.50;;;;;24.69;35.57;101255.13;5080827;28;45157;-55
2022/06/16 00:26:19;;;;;;;;;12.00;12.00;;;;;24.63;35.61;101250.97;5079505;28;48292;-55
2022/06/16 00:28:48;;;;;;;;;14.50;13.00;;;;;24.56;35.89;101255.03;5079833;27;45292;-57
2022/06/16 00:31:16;;;;;;;;;11.75;11.00;;;;;24.50;35.93;101259.00;5080357;27;45296;-57
2022/06/16 00:33:42;;;;;;;;;12.75;12.75;;;;;24.44;36.00;101253.13;5080593;27;45374;-57
2022/06/16 00:36:08;;;;;;;;;11.00;11.00;;;;;24.40;36.16;101263.25;5080537;28;46429;-57
2022/06/16 00:38:34;;;;;;;;;9.75;9.75;;;;;24.36;36.18;101264.38;5067177;28;45357;-55
2022/06/16 00:40:59;;;;;;;;;12.00;12.00;;;;;24.32;36.52;101263.72;5059232;28;45339;-57
2022/06/16 00:43:26;;;;;;;;;11.50;11.50;;;;;24.28;36.47;101266.72;5059909;28;45399;-56
2022/06/16 00:45:54;;;;;;;;;13.00;13.00;;;;;24.24;36.78;101276.78;5059904;28;46788;-56
2022/06/16 00:48:25;;;;;;;;;13.25;11.50;;;;;24.21;36.58;101276.09;5064994;28;45187;-56
2022/06/16 00:50:58;;;;;;;;;12.25;12.25;;;;;24.16;37.03;101281.75;5080566;28;45332;-56
2022/06/16 00:53:26;;;;;;;;;10.00;10.00;;;;;24.10;36.92;101285.72;5080344;27;45391;-56
2022/06/16 00:55:52;;;;;;;;;12.50;12.25;;;;;24.07;37.11;101285.03;5080266;27;45275;-55
2022/06/16 00:58:18;;;;;;;;;12.00;11.75;;;;;24.05;37.33;101292.31;5080276;27;45300;-55
2022/06/16 01:00:45;;;;;;;;;12.25;12.25;;;;;24.01;37.53;101297.88;5080154;28;45426;-56
2022/06/16 01:03:11;;;;;;;;;14.75;14.50;;;;;24.00;37.61;101300.66;5078908;28;45317;-55
2022/06/16 01:05:37;;;;;;;;;13.25;12.50;;;;;23.97;37.62;101307.06;5079551;27;45396;-56
2022/06/16 01:08:04;;;;;;;;;14.00;14.00;;;;;23.94;37.92;101307.25;5080308;27;45326;-56
2022/06/16 01:10:37;;;;;;;;;13.00;12.00;;;;;23.90;37.73;101304.81;5080306;27;45366;-56
2022/06/16 01:15:59;;;;;;;;;10.25;10.25;;;;;23.83;37.58;101315.94;5079592;28;45750;-56
2022/06/16 01:18:28;;;;;;;;;12.25;12.00;;;;;23.80;38.21;101316.13;5079856;28;45336;-56
2022/06/16 01:21:17;;;;;;;;;15.00;12.75;;;;;23.78;38.10;101319.88;5079920;27;45193;-56
2022/06/16 01:24:04;;;;;;;;;14.00;14.00;;;;;23.74;38.22;101318.34;5080005;27;45354;-55
2022/06/16 01:26:49;;;;;;;;;14.25;12.75;;;;;23.69;38.36;101319.47;5079950;28;45515;-55
2022/06/16 01:29:39;;;;;;;;;15.00;12.00;;;;;23.65;38.60;101322.44;5079963;27;45386;-56
2022/06/16 01:32:19;;;;;;;;;15.75;12.75;;;;;23.61;38.93;101327.13;5079611;28;45398;-56
2022/06/16 01:35:03;;;;;;;;;12.50;11.75;;;;;23.58;39.17;101329.97;5079891;27;45250;-57
2022/06/16 01:37:41;;;;;;;;;13.50;13.25;;;;;23.56;39.35;101331.03;5079651;28;46037;-55
2022/06/16 01:40:13;;;;;;;;;14.00;14.00;;;;;23.53;39.18;101335.63;5075432;28;45256;-55
2022/06/16 01:42:53;;;;;;;;;15.25;14.00;;;;;23.48;39.31;101335.03;5078293;28;45532;-55
2022/06/16 01:45:29;;;;;;;;;12.50;12.25;;;;;23.48;39.42;101340.41;5078787;27;45295;-56
2022/06/16 01:47:57;;;;;;;;;11.25;9.00;;;;;23.46;39.77;101341.41;5064109;27;47121;-55
2022/06/16 01:50:30;;;;;;;;;17.00;15.50;;;;;23.41;39.66;101351.56;5079132;27;45327;-55
2022/06/16 01:53:06;;;;;;;;;12.75;12.00;;;;;23.34;39.61;101351.91;5079645;27;45386;-54
2022/06/16 01:55:36;;;;;;;;;13.50;13.50;;;;;23.33;39.83;101360.94;5079515;27;45452;-56
2022/06/16 01:58:07;;;;;;;;;15.25;15.25;;;;;23.32;39.76;101363.69;5079294;27;46036;-55
2022/06/16 02:00:34;;;;;;;;;17.00;14.75;;;;;23.30;39.62;101361.09;5079267;27;45397;-56
2022/06/16 02:03:11;;;;;;;;;12.50;12.00;;;;;23.27;40.22;101361.28;5079303;27;45244;-55
2022/06/16 02:05:58;;;;;;;;;16.00;14.50;;;;;23.24;40.31;101360.59;5079436;27;45248;-55
2022/06/16 02:08:30;;;;;;;;;17.50;14.25;;;;;23.18;40.26;101365.38;5079494;27;46226;-55
2022/06/16 02:11:00;;;;;;;;;15.50;14.00;;;;;23.16;40.42;101361.06;5079280;27;45992;-55
2022/06/16 02:13:30;;;;;;;;;12.50;12.50;;;;;23.13;40.52;101366.53;5079534;27;45349;-55
2022/06/16 02:16:13;;;;;;;;;14.00;13.00;;;;;23.13;40.53;101361.19;5078765;27;45319;-54
2022/06/16 02:18:41;;;;;;;;;15.25;14.50;;;;;23.13;40.67;101363.84;5081024;28;46411;-55
2022/06/16 02:21:21;;;;;;;;;14.25;14.25;;;;;23.10;40.72;101364.91;5081486;28;45259;-55
2022/06/16 02:23:47;;;;;;;;;14.50;13.50;;;;;23.07;40.67;101370.44;5082763;27;45310;-55
2022/06/16 02:26:12;;;;;;;;;15.50;15.00;;;;;23.03;41.38;101367.06;5081320;28;45351;-53
2022/06/16 02:28:51;;;;;;;;;17.00;15.75;;;;;22.99;41.06;101368.22;5082514;27;45415;-55
2022/06/16 02:31:46;;;;;;;;;14.50;13.50;;;;;22.99;40.88;101376.25;5080968;28;45345;-55
2022/06/16 02:34:29;;;;;;;;;16.25;14.75;;;;;22.95;41.30;101361.28;5082657;27;45227;-55
2022/06/16 02:37:25;;;;;;;;;14.50;14.00;;;;;22.94;41.61;101377.44;5082295;27;45306;-55
2022/06/16 02:40:09;;;;;;;;;16.00;15.50;;;;;22.93;41.64;101378.38;5059085;28;45391;-56
2022/06/16 02:42:43;;;;;;;;;18.25;13.75;;;;;22.90;41.47;101379.44;5061852;28;45366;-56
2022/06/16 02:45:40;;;;;;;;;15.75;14.50;;;;;22.88;41.73;101376.84;5061829;28;45402;-56
2022/06/16 02:48:15;;;;;;;;;15.00;14.25;;;;;22.86;41.42;101380.56;5065124;28;45689;-55
2022/06/16 02:51:05;;;;;;;;;16.00;16.00;;;;;22.84;41.98;101372.63;5082080;27;45488;-56
2022/06/16 02:53:40;;;;;;;;;17.25;16.50;;;;;22.84;41.42;101374.41;5082092;28;45381;-56
2022/06/16 02:56:19;;;;;;;;;14.75;12.75;;;;;22.80;41.98;101373.72;5082328;27;45377;-55
2022/06/16 02:58:48;;;;;;;;;19.00;18.50;;;;;22.77;42.18;101367.69;5082056;27;45441;-55
2022/06/16 03:01:14;;;;;;;;;18.25;16.00;;;;;22.76;42.10;101371.31;5081525;27;46212;-55
2022/06/16 03:03:39;;;;;;;;;18.50;17.00;;;;;22.75;42.06;101370.44;5082021;27;45279;-56
2022/06/16 03:06:05;;;;;;;;;18.00;16.50;;;;;22.73;41.99;101383.91;5081929;28;45484;-56
2022/06/16 03:08:43;;;;;;;;;15.00;15.00;;;;;22.71;42.49;101383.13;5082012;27;45464;-55
2022/06/16 03:11:10;;;;;;;;;18.00;16.75;;;;;22.67;42.26;101389.63;5081808;27;45315;-55
2022/06/16 03:13:36;;;;;;;;;18.50;15.50;;;;;22.66;41.95;101387.88;5080401;28;45303;-56
2022/06/16 03:16:02;;;;;;;;;15.25;15.25;;;;;22.63;42.60;101388.06;5081602;27;45247;-55
2022/06/16 03:18:28;;;;;;;;;19.25;16.00;;;;;22.59;42.60;101390.97;5080462;28;45822;-55
2022/06/16 03:20:53;;;;;;;;;19.00;16.50;;;;;22.60;42.40;101398.94;5081655;27;45289;-54
2022/06/16 03:23:20;;;;;;;;;20.00;17.75;;;;;22.54;42.78;101399.25;5081906;27;45309;-55
2022/06/16 03:25:46;;;;;;;;;20.00;19.25;;;;;22.55;42.61;101396.53;5080704;28;45352;-55
2022/06/16 03:28:13;;;;;;;;;16.75;15.50;;;;;22.51;42.91;101394.94;5080038;28;45355;-55
2022/06/16 03:30:39;;;;;;;;;20.25;18.75;;;;;22.51;42.84;101402.97;5081206;27;46299;-55
2022/06/16 03:33:07;;;;;;;;;18.00;17.00;;;;;22.51;43.01;101404.78;5081521;27;45381;-55
2022/06/16 03:35:32;;;;;;;;;18.50;17.25;;;;;22.45;43.00;101395.28;5081738;27;45319;-55
2022/06/16 03:38:14;;;;;;;;;17.25;15.75;;;;;22.45;43.13;101402.44;5074786;27;45512;-55
2022/06/16 03:40:39;;;;;;;;;16.25;15.50;;;;;22.43;42.83;101407.88;5081717;27;45436;-55
2022/06/16 03:43:06;;;;;;;;;22.25;20.50;;;;;22.40;42.95;101405.34;5081077;27;45384;-55
2022/06/16 03:45:32;;;;;;;;;19.50;19.50;;;;;22.39;43.15;101409.88;5080921;27;45394;-55
2022/06/16 03:47:58;;;;;;;;;19.50;17.75;;;;;22.38;43.39;101408.13;5065858;27;45252;-56
2022/06/16 03:50:23;;;;;;;;;20.25;17.25;;;;;22.36;43.86;101412.69;5081166;27;46378;-56
2022/06/16 03:52:48;;;;;;;;;21.50;18.25;;;;;22.35;43.41;101418.97;5079779;28;45382;-56
2022/06/16 03:55:14;;;;;;;;;21.00;18.75;;;;;22.35;43.75;101415.41;5081404;27;45318;-56
2022/06/16 03:57:39;;;;;;;;;19.75;18.50;;;;;22.35;43.39;101416.31;5081189;27;45484;-55
2022/06/16 04:00:06;;;;;;;;;22.00;18.75;;;;;22.35;43.44;101420.78;5080875;28;45160;-56
2022/06/16 04:02:31;;;;;;;;;19.00;19.00;;;;;22.32;43.11;101415.59;5080900;27;45336;-55
2022/06/16 04:04:57;;;;;;;;;54.75;46.25;;;;;22.31;43.90;101421.88;5081297;27;45320;-56
2022/06/16 04:07:22;;;;;;;;;35.75;32.50;;;;;22.34;43.48;101435.09;5080981;28;45366;-55
2022/06/16 04:09:48;;;;;;;;;25.75;24.00;;;;;22.33;43.76;101428.91;5050975;28;46345;-56
2022/06/16 04:12:13;;;;;;;;;22.00;21.25;;;;;22.34;43.86;101433.31;5060510;28;45331;-55
2022/06/16 04:14:38;;;;;;;;;21.25;20.25;;;;;22.31;43.25;101425.41;5060604;28;45328;-54
2022/06/16 04:17:04;;;;;;;;;21.75;21.00;;;;;22.32;43.80;101421.81;5060360;28;45418;-55
2022/06/16 04:19:29;;;;;;;;;18.50;18.50;;;;;22.31;44.02;101422.75;5060482;28;46291;-55
2022/06/16 04:21:54;;;;;;;;;20.75;19.75;;;;;;;;5060302;28;45461;-56
2022/06/16 04:24:22;;;;;;;;;21.00;18.50;;;;;22.29;43.49;101421.97;5059009;28;45457;-56
2022/06/16 04:26:51;;;;;;;;;19.75;18.75;;;;;22.31;43.74;101429.91;5058725;28;45571;-56
2022/06/16 04:29:17;;;;;;;;;18.75;18.75;;;;;22.31;43.96;101441.47;5060116;28;46527;-55
2022/06/16 04:31:43;;;;;;;;;26.00;23.00;;;;;22.31;43.80;101446.84;5060184;28;45369;-55
2022/06/16 04:34:09;;;;;;;;;23.25;20.25;;;;;22.31;43.45;101449.50;5060551;28;45317;-55
2022/06/16 04:36:34;;;;;;;;;23.75;22.25;;;;;22.31;43.52;101436.13;5060261;28;45466;-55
2022/06/16 04:39:00;;;;;;;;;21.00;20.00;;;;;22.31;43.84;101448.66;5058797;28;48232;-55
2022/06/16 04:41:26;;;;;;;;;23.00;19.50;;;;;22.32;43.80;101451.25;5059637;28;45348;-55
2022/06/16 04:43:51;;;;;;;;;23.50;21.50;;;;;22.32;43.52;101453.94;5060220;28;45376;-57
2022/06/16 04:46:19;;;;;;;;;23.25;22.25;;;;;22.32;44.10;101448.56;5060076;28;45576;-55
2022/06/16 04:48:44;;;;;;;;;24.25;21.50;;;;;22.27;43.93;101445.28;5069148;28;47842;-56
2022/06/16 04:51:12;;;;;;;;;24.25;21.00;;;;;22.33;43.57;101447.63;5080449;28;45214;-55
2022/06/16 04:53:38;;;;;;;;;22.25;20.00;;;;;22.34;43.94;101452.03;5080546;27;45299;-55
2022/06/16 04:56:05;;;;;;;;;21.50;19.75;;;;;22.36;44.11;101450.16;5080267;27;45330;-56
2022/06/16 04:58:31;;;;;;;;;21.00;19.75;;;;;22.37;43.58;101459.94;5080323;27;46399;-54
2022/06/16 05:00:57;;;;;;;;;23.00;22.25;;;;;22.40;44.31;101464.25;5060384;27;45331;-56
2022/06/16 05:03:25;;;;;;;;;23.25;21.25;;;;;22.41;43.80;101468.69;5069646;28;45536;-56
2022/06/16 05:05:51;;;;;;;;;21.25;19.25;;;;;22.40;43.58;101475.84;5080286;27;45349;-56
2022/06/16 05:08:18;;;;;;;;;19.75;16.25;;;;;22.41;43.84;101474.03;5080196;27;45318;-56
2022/06/16 05:10:46;;;;;;;;;23.50;21.00;;;;;22.38;44.26;101474.22;5080166;27;45330;-57
2022/06/16 05:13:12;;;;;;;;;22.00;19.25;;;;;22.42;44.04;101483.81;5080190;28;45362;-57
2022/06/16 05:15:37;;;;;;;;;25.25;23.00;;;;;22.42;43.89;101493.66;5078367;28;45182;-55
2022/06/16 05:18:03;;;;;;;;;22.00;21.50;;;;;22.38;44.18;101490.28;5080032;28;45557;-59
2022/06/16 05:20:28;;;;;;;;;23.75;21.25;;;;;22.38;43.84;101498.31;5079902;27;45295;-60
2022/06/16 05:22:54;;;;;;;;;25.50;21.25;;;;;22.37;44.17;101502.78;5080146;27;45723;-60
2022/06/16 05:25:19;;;;;;;;;22.50;21.00;;;;;22.35;44.20;101501.09;5079959;28;45251;-60
2022/06/16 05:27:45;;;;;;;;;33.25;22.25;;;;;22.36;43.70;101506.38;5078448;28;47052;-60
2022/06/16 05:30:10;;;;;;;;;23.50;22.25;;;;;22.37;43.70;101515.31;5079747;28;45298;-60
2022/06/16 05:32:37;;;;;;;;;16.75;16.75;;;;;22.38;44.01;101515.22;5079948;28;45434;-60
2022/06/16 05:35:03;;;;;;;;;24.25;24.25;;;;;22.39;44.20;101524.13;5079693;28;45425;-58
2022/06/16 05:37:31;;;;;;;;;23.75;22.50;;;;;22.41;44.15;101530.25;5079992;27;46558;-59
2022/06/16 05:39:56;;;;;;;;;17.75;15.00;;;;;22.39;44.02;101533.03;5079603;28;45239;-59
2022/06/16 05:42:21;;;;;;;;;22.75;18.75;;;;;22.42;44.71;101540.03;5078396;28;45173;-58
2022/06/16 05:44:47;;;;;;;;;21.25;20.25;;;;;22.40;44.15;101542.78;5076096;27;45175;-59
2022/06/16 05:47:12;;;;;;;;;24.00;20.50;;;;;22.45;44.13;101541.69;5059092;28;45995;-59
2022/06/16 05:49:42;;;;;;;;;20.50;18.50;;;;;22.50;44.28;101555.69;5075355;28;45345;-59
2022/06/16 05:52:14;;;;;;;;;24.25;22.00;;;;;22.48;44.38;101550.44;5082195;27;45345;-59
2022/06/16 05:54:40;;;;;;;;;23.25;21.50;;;;;22.51;44.47;101560.97;5083183;28;45317;-59
2022/06/16 05:57:07;;;;;;;;;20.25;20.25;;;;;22.52;44.52;101554.66;5082802;27;45363;-59
2022/06/16 05:59:33;;;;;;;;;21.00;21.00;;;;;22.54;44.60;101557.25;5082679;27;45447;-60
2022/06/16 06:01:58;;;;;;;;;24.25;23.75;;;;;22.57;44.50;101557.13;5050767;28;45466;-59
2022/06/16 06:04:23;;;;;;;;;23.25;22.00;;;;;22.57;44.37;101549.09;5062051;28;45301;-60
2022/06/16 06:06:49;;;;;;;;;22.75;20.50;;;;;22.59;44.69;101560.59;5062259;28;45938;-59
2022/06/16 06:17:27;;;;;;;;;24.50;22.00;;;;;22.70;44.33;101557.34;5066395;28;45501;-61
2022/06/16 06:19:53;;;;;;;;;22.50;19.00;;;;;22.76;44.48;101572.22;5062032;28;45313;-61
2022/06/16 06:22:24;;;;;;;;;23.75;22.50;;;;;22.80;44.31;101581.84;5061086;28;45337;-61
2022/06/16 06:24:54;;;;;;;;;20.75;19.50;;;;;22.82;44.34;101580.81;5067353;28;46561;-62
2022/06/16 06:27:31;;;;;;;;;22.25;20.75;;;;;22.87;44.31;101583.25;5067407;28;47193;-61
2022/06/16 06:29:57;;;;;;;;;23.00;21.25;;;;;22.88;43.85;101582.31;5070963;27;45280;-61
2022/06/16 06:32:24;;;;;;;;;26.50;25.50;;;;;22.93;43.89;101593.66;5068666;28;45268;-61
2022/06/16 06:34:50;;;;;;;;;23.25;21.00;;;;;23.00;43.16;101597.72;5065665;28;45238;-61
2022/06/16 06:37:18;;;;;;;;;23.00;21.50;;;;;23.04;43.00;101590.38;5061869;28;46026;-56
2022/06/16 06:39:44;;;;;;;;;26.50;24.00;;;;;23.10;43.42;101602.59;5060799;28;45349;-54
2022/06/16 06:42:10;;;;;;;;;25.50;23.75;;;;;23.13;43.07;101597.06;5062286;28;46689;-54
2022/06/16 06:44:36;;;;;;;;;23.50;22.25;;;;;23.13;42.82;101589.03;5062370;28;45298;-53
2022/06/16 06:47:03;;;;;;;;;24.50;23.75;;;;;23.18;42.71;101603.06;5068427;28;46296;-52
2022/06/16 06:49:29;;;;;;;;;22.75;18.00;;;;;23.21;42.56;101606.44;5066972;28;45236;-53
2022/06/16 06:51:54;;;;;;;;;22.50;21.50;;;;;23.24;42.24;101604.56;5062136;28;45387;-50
2022/06/16 06:54:20;;;;;;;;;20.75;20.75;;;;;23.25;42.21;101604.47;5062379;28;45504;-51
2022/06/16 06:56:47;;;;;;;;;21.75;20.50;;;;;23.22;42.32;101607.34;5062260;28;45415;-52
2022/06/16 06:59:16;;;;;;;;;25.75;22.00;;;;;23.21;42.38;101608.28;5061409;28;45311;-52
2022/06/16 07:01:42;;;;;;;;;24.75;18.75;;;;;23.19;42.22;101608.38;5060559;28;45331;-53
2022/06/16 07:04:07;;;;;;;;;21.25;20.50;;;;;23.22;41.70;101612.69;5061475;28;45326;-55
2022/06/16 07:06:32;;;;;;;;;22.00;18.75;;;;;23.25;42.26;101617.03;5060390;28;53300;-52
2022/06/16 07:08:58;;;;;;;;;19.00;18.50;;;;;23.28;42.06;101620.41;5061307;28;45311;-51
2022/06/16 07:11:24;;;;;;;;;17.75;16.50;;;;;23.28;41.74;101614.16;5061609;28;45223;-53
2022/06/16 07:13:49;;;;;;;;;16.50;14.75;;;;;23.27;41.86;101616.00;5062164;28;45550;-50
2022/06/16 07:16:15;;;;;;;;;16.50;14.75;;;;;23.36;41.22;101634.25;5061164;28;45293;-54
2022/06/16 07:18:40;;;;;;;;;17.25;16.25;;;;;23.38;41.20;101634.16;5060241;28;45178;-52
2022/06/16 07:21:06;;;;;;;;;20.50;18.50;;;;;23.43;40.80;101636.59;5060654;28;45361;-49
2022/06/16 07:23:32;;;;;;;;;15.50;14.25;;;;;23.46;40.40;101648.03;5060914;27;45418;-51
2022/06/16 07:25:58;;;;;;;;;18.50;15.50;;;;;23.51;40.26;101655.84;5061089;28;47125;-52
2022/06/16 07:28:23;;;;;;;;;19.50;17.25;;;;;23.54;40.29;101647.63;5060520;28;45306;-53
2022/06/16 07:30:49;;;;;;;;;18.25;17.25;;;;;23.57;39.92;101651.94;5061464;28;45247;-51
2022/06/16 07:33:15;;;;;;;;;19.50;17.00;;;;;23.54;39.50;101653.84;5060975;27;45515;-54
2022/06/16 07:35:43;;;;;;;;;21.25;19.50;;;;;23.59;40.02;101658.09;5058728;28;46875;-53
2022/06/16 07:38:10;;;;;;;;;16.25;15.00;;;;;23.64;39.94;101659.56;5058830;28;45383;-51
2022/06/16 07:40:35;;;;;;;;;16.50;15.50;;;;;23.68;39.49;101663.84;5060436;28;45706;-52
2022/06/16 07:43:01;;;;;;;;;18.00;17.00;;;;;23.67;39.34;101655.84;5058682;28;45603;-52
2022/06/16 07:45:28;;;;;;;;;14.25;14.25;;;;;23.77;39.60;101664.25;5059645;28;45508;-52
2022/06/16 07:47:55;;;;;;;;;16.75;16.25;;;;;23.81;39.56;101663.13;5073203;28;45461;-53
2022/06/16 07:50:20;;;;;;;;;15.50;15.25;;;;;23.85;39.22;101657.50;5059712;28;45503;-53
2022/06/16 07:52:46;;;;;;;;;15.75;14.25;;;;;23.92;38.89;101660.75;5060066;28;45440;-51
2022/06/16 07:55:12;;;;;;;;;17.75;16.00;;;;;23.93;38.92;101659.81;5076384;27;45495;-53
2022/06/16 07:57:44;;;;;;;;;15.25;14.25;;;;;24.04;38.90;101672.63;5061287;28;45382;-54
2022/06/16 08:00:11;;;;;;;;;15.00;15.00;;;;;24.10;38.61;101668.72;5076676;27;45450;-52
2022/06/16 08:02:37;;;;;;;;;16.00;14.50;;;;;24.12;38.12;101654.25;5058771;28;45501;-51
2022/06/16 08:05:04;;;;;;;;;20.75;17.00;;;;;24.19;38.12;101660.16;5060374;28;45513;-56
2022/06/16 08:07:30;;;;;;;;;15.25;13.75;;;;;24.21;38.17;101658.22;5061774;28;45329;-49
2022/06/16 08:09:55;;;;;;;;;15.50;15.50;;;;;24.26;38.20;101666.88;5072840;27;45438;-50
2022/06/16 08:12:21;;;;;;;;;17.00;17.00;;;;;24.32;38.20;101671.03;5060380;28;45750;-52
2022/06/16 08:14:48;;;;;;;;;15.75;14.50;;;;;24.36;37.87;101666.38;5059784;28;45465;-52
2022/06/16 08:17:24;;;;;;;;;15.25;13.75;;;;;24.43;37.76;101671.28;5058886;28;45871;-53
2022/06/16 08:19:50;;;;;;;;;15.00;15.00;;;;;24.48;37.45;101663.81;5059428;28;45916;-52
2022/06/16 08:22:16;;;;;;;;;10.00;10.00;;;;;24.53;37.34;101666.25;5059293;28;45729;-53
2022/06/16 08:24:41;;;;;;;;;14.25;13.25;;;;;24.58;36.81;101664.16;5058971;28;46275;-53
2022/06/16 08:27:07;;;;;;;;;17.50;14.75;;;;;24.63;36.90;101670.13;5061079;28;45359;-51
2022/06/16 08:29:35;;;;;;;;;14.25;13.25;;;;;24.70;36.38;101675.16;5037715;28;45440;-53
2022/06/16 08:32:00;;;;;;;;;14.25;12.75;;;;;24.75;36.43;101673.06;5057547;28;45386;-52
2022/06/16 08:34:26;;;;;;;;;16.00;13.25;;;;;24.81;35.59;101672.69;5061860;28;46064;-53
2022/06/16 08:36:52;;;;;;;;;14.00;10.00;;;;;24.87;35.31;101675.03;5060985;28;45450;-53
2022/06/16 08:39:17;;;;;;;;;15.75;13.50;;;;;24.92;34.76;101670.22;5058537;28;45463;-52
2022/06/16 08:41:50;;;;;;;;;18.75;15.50;;;;;24.99;34.84;101668.91;5057834;28;45857;-53
2022/06/16 08:44:24;;;;;;;;;14.00;14.00;;;;;25.04;34.86;101667.75;5058856;28;46995;-54
2022/06/16 08:47:07;;;;;;;;;14.25;13.75;;;;;25.10;34.68;101668.25;5064981;28;45417;-49
2022/06/16 08:49:49;;;;;;;;;14.50;14.50;;;;;25.15;34.45;101674.19;5064566;27;45464;-52
2022/06/16 08:52:37;;;;;;;;;14.50;14.00;;;;;25.24;34.06;101672.75;5058548;28;45433;-50
2022/06/16 08:55:10;;;;;;;;;15.75;12.00;;;;;25.29;34.13;101677.88;5058685;28;45385;-52
2022/06/16 08:57:42;;;;;;;;;11.25;10.50;;;;;25.35;34.10;101674.81;5059742;28;45312;-53
2022/06/16 09:00:30;;;;;;;;;18.50;17.00;;;;;25.44;34.10;101676.94;5058474;28;45363;-52
2022/06/16 09:03:04;;;;;;;;;18.00;16.25;;;;;25.47;33.33;101679.44;5058045;28;45469;-52
2022/06/16 09:05:42;;;;;;;;;18.75;12.00;;;;;25.57;33.15;101674.38;5058343;28;46371;-54
2022/06/16 09:08:32;;;;;;;;;12.50;11.25;;;;;25.64;33.62;101667.59;5058476;28;45878;-53
2022/06/16 09:11:01;;;;;;;;;15.00;14.00;;;;;25.75;33.93;101680.38;5056334;28;45923;-53
2022/06/16 09:13:42;;;;;;;;;13.00;13.00;;;;;25.87;33.04;101673.34;5058396;28;45391;-54
2022/06/16 09:16:08;;;;;;;;;14.50;14.00;;;;;25.97;32.65;101668.25;5045845;28;46999;-54
2022/06/16 09:19:01;;;;;;;;;13.00;11.50;;;;;26.05;32.88;101671.34;5059071;28;45311;-54
2022/06/16 09:21:44;;;;;;;;;13.25;13.25;;;;;26.16;32.06;101670.63;5060202;28;45446;-53
2022/06/16 09:24:22;;;;;;;;;12.25;10.00;;;;;26.22;32.74;101669.38;5048003;28;45306;-53
2022/06/16 09:26:56;;;;;;;;;12.25;11.75;;;;;26.33;31.73;101669.50;5061232;28;45407;-52
2022/06/16 09:29:31;;;;;;;;;14.75;11.50;;;;;26.42;32.07;101671.59;5062955;28;45415;-52
2022/06/16 09:32:13;;;;;;;;;15.75;11.75;;;;;26.56;31.95;101680.59;5062792;28;45442;-51
2022/06/16 09:34:45;;;;;;;;;15.00;12.50;;;;;26.69;30.87;101683.31;5062974;28;45236;-50
2022/06/16 09:37:24;;;;;;;;;15.25;14.00;;;;;26.81;31.23;101693.28;5063076;28;46058;-52
2022/06/16 09:39:56;;;;;;;;;13.00;11.25;;;;;26.95;31.00;101680.69;5062779;28;45236;-51
2022/06/16 09:42:37;;;;;;;;;10.00;10.00;;;;;27.10;30.48;101679.63;5063096;28;45281;-52
2022/06/16 09:45:26;;;;;;;;;11.50;11.00;;;;;27.24;30.69;101674.16;5061513;28;45463;-53
2022/06/16 09:48:00;;;;;;;;;12.00;10.00;;;;;27.35;29.83;101670.66;5075831;28;46172;-53
2022/06/16 09:50:47;;;;;;;;;13.00;12.00;;;;;27.46;29.67;101661.84;5062634;28;45323;-52
2022/06/16 09:53:41;;;;;;;;;11.75;10.00;;;;;27.55;30.49;101658.47;5062856;28;45494;-54
2022/06/16 09:56:13;;;;;;;;;10.50;9.50;;;;;27.69;30.24;101656.63;5054248;28;45235;-51
2022/06/16 09:58:49;;;;;;;;;11.00;10.25;;;;;27.81;29.53;101652.16;5061129;28;45508;-53
2022/06/16 10:01:18;;;;;;;;;10.50;10.50;;;;;27.94;29.96;101646.72;5060862;28;45457;-51
2022/06/16 10:04:04;;;;;;;;;8.75;8.75;;;;;28.05;29.71;101655.78;5062802;28;45342;-53
2022/06/16 10:06:38;;;;;;;;;12.25;9.50;;;;;28.14;29.34;101662.34;5050581;28;45466;-53
2022/06/16 10:09:10;;;;;;;;;9.75;9.75;;;;;28.22;28.70;101646.41;5060659;28;47077;-50
2022/06/16 10:11:54;;;;;;;;;9.25;9.00;;;;;28.31;29.42;101652.13;5062594;28;45378;-51
2022/06/16 10:14:35;;;;;;;;;7.75;7.50;;;;;28.42;28.47;101652.16;5049022;28;45345;-54
2022/06/16 10:17:05;;;;;;;;;7.75;7.00;;;;;28.52;27.78;101653.19;5061679;28;45273;-50
2022/06/16 10:19:38;;;;;;;;;9.75;8.50;;;;;28.61;27.59;101651.63;5060529;28;46815;-53
2022/06/16 10:22:03;;;;;;;;;8.00;8.00;;;;;28.73;28.24;101660.69;5061850;28;45469;-52
2022/06/16 10:24:55;;;;;;;;;9.50;9.50;;;;;28.89;27.29;101660.31;5062643;28;45397;-54
2022/06/16 10:27:25;;;;;;;;;8.75;8.25;;;;;29.03;27.03;101664.66;5062402;28;45387;-54
2022/06/16 10:29:57;;;;;;;;;8.00;8.00;;;;;29.15;26.34;101654.72;5061938;28;48715;-54
2022/06/16 10:32:45;;;;;;;;;10.50;9.50;;;;;29.34;27.19;101652.28;5061756;28;45397;-52
2022/06/16 10:35:19;;;;;;;;;11.75;10.75;;;;;29.53;26.92;101653.53;5062240;28;45382;-54
2022/06/16 10:37:50;;;;;;;;;9.25;8.25;;;;;29.72;26.60;101655.59;5060649;28;45464;-50
2022/06/16 10:40:22;;;;;;;;;7.50;6.50;;;;;30.05;26.38;101648.44;5062158;28;45294;-53
2022/06/16 10:42:51;;;;;;;;;9.50;9.25;;;;;30.44;25.83;101651.50;5061704;28;45414;-53
2022/06/16 10:45:25;;;;;;;;;6.75;6.75;;;;;31.02;26.14;101644.78;5061775;28;45237;-53
2022/06/16 10:47:55;;;;;;;;;9.00;7.75;;;;;32.87;25.42;101645.38;5074655;28;45412;-52
2022/06/16 10:50:23;;;;;;;;;9.25;8.25;;;;;37.06;23.71;101647.50;5062035;28;47089;-53
2022/06/16 10:52:58;;;;;;;;;7.00;7.00;;;;;41.62;20.49;101650.13;5061927;28;45360;-53
2022/06/16 10:55:29;;;;;;;;;10.25;9.50;;;;;45.28;17.66;101652.72;5052604;28;45269;-52
2022/06/16 10:58:05;;;;;;;;;9.75;9.75;;;;;48.25;15.20;101655.44;5061621;28;45326;-53
2022/06/16 11:00:35;;;;;;;;;7.00;7.00;;;;;50.57;13.87;101656.19;5060934;28;46198;-53
2022/06/16 11:03:13;;;;;;;;;9.00;7.00;;;;;52.85;11.30;101656.56;5061740;28;45243;-53
2022/06/16 11:05:51;;;;;;;;;7.00;7.00;;;;;54.74;10.92;101650.63;5061156;28;45355;-54
2022/06/16 11:08:16;;;;;;;;;9.25;9.00;;;;;56.69;9.34;101650.63;5061550;28;45510;-51
2022/06/16 11:10:52;;;;;;;;;6.00;6.00;;;;;59.17;8.39;101649.88;5059731;28;46081;-48
2022/06/16 11:13:25;;;;;;;;;7.75;7.75;;;;;61.05;6.93;101647.44;5061865;28;45251;-49
2022/06/16 11:15:51;;;;;;;;;6.25;6.00;;;;;63.45;6.28;101646.50;5076596;27;45394;-52
2022/06/16 11:18:22;;;;;;;;;6.00;6.00;;;;;65.02;3.13;101635.72;5061686;28;45227;-53
2022/06/16 11:20:50;;;;;;;;;6.75;6.75;;;;;65.05;2.49;101643.53;5061575;28;46388;-53
2022/06/16 11:23:27;;;;;;;;;8.50;8.50;;;;;65.85;3.98;101645.09;5061439;28;45372;-51
2022/06/16 11:26:09;;;;;;;;;6.00;5.00;;;;;66.88;2.91;101649.94;5061653;28;45181;-54
2022/06/16 11:28:52;;;;;;;;;6.50;5.50;;;;;67.70;3.37;101654.13;5061141;28;45319;-54
2022/06/16 11:31:21;;;;;;;;;8.75;5.25;;;;;68.01;2.74;101654.81;5060681;28;46358;-53
2022/06/16 11:34:07;;;;;;;;;7.00;7.00;;;;;67.46;2.39;101653.47;5061235;28;45645;-53
2022/06/16 11:37:00;;;;;;;;;7.50;6.75;;;;;67.33;3.11;101639.41;5061283;28;45302;-52
2022/06/16 11:39:52;;;;;;;;;4.75;4.75;;;;;66.37;2.97;101634.09;5060905;28;45329;-52